createdAt,value
2019-02-17T00:00:41.660Z,74.23
2019-02-17T00:03:11.028Z,74.16
2019-02-17T00:05:40.414Z,74.12
2019-02-17T00:08:09.791Z,74.36
2019-02-17T00:10:39.119Z,74.54
2019-02-17T00:13:08.490Z,74.74
2019-02-17T00:15:37.892Z,74.70
2019-02-17T00:18:07.297Z,74.66
2019-02-17T00:20:36.639Z,74.40
2019-02-17T00:23:05.968Z,74.48
2019-02-17T00:25:35.308Z,74.40
2019-02-17T00:28:04.706Z,74.42
2019-02-17T00:30:34.098Z,74.40
2019-02-17T00:33:03.479Z,74.46
2019-02-17T00:35:33.246Z,74.61
2019-02-17T00:38:02.864Z,74.71
2019-02-17T00:40:32.232Z,74.76
2019-02-17T00:43:01.591Z,74.83
2019-02-17T00:45:31.131Z,74.84
2019-02-17T00:48:02.848Z,75.02
2019-02-17T00:50:36.299Z,75.11
2019-02-17T00:53:05.694Z,75.34
2019-02-17T00:55:35.051Z,75.46
2019-02-17T00:58:04.469Z,75.66
2019-02-17T01:00:33.824Z,75.67
2019-02-17T01:03:03.426Z,75.97
2019-02-17T01:05:32.780Z,76.05
2019-02-17T01:08:02.142Z,76.32
2019-02-17T01:10:31.547Z,76.49
2019-02-17T01:13:01.063Z,76.66
2019-02-17T01:15:30.444Z,76.57
2019-02-17T01:17:59.890Z,76.71
2019-02-17T01:20:29.256Z,76.79
2019-02-17T01:22:58.624Z,76.89
2019-02-17T01:25:28.334Z,76.87
2019-02-17T01:27:57.740Z,76.82
2019-02-17T01:30:27.106Z,77.00
2019-02-17T01:36:27.435Z,77.21
2019-02-17T01:38:55.472Z,77.07
2019-02-17T01:41:48.137Z,77.00
2019-02-17T01:44:17.488Z,77.09
2019-02-17T01:46:46.905Z,77.03
2019-02-17T01:49:16.320Z,77.16
2019-02-17T01:51:45.693Z,77.37
2019-02-17T01:54:15.123Z,77.42
2019-02-17T01:56:44.901Z,77.55
2019-02-17T01:59:14.280Z,77.61
2019-02-17T02:01:43.665Z,77.29
2019-02-17T02:04:13.035Z,77.21
2019-02-17T02:06:42.530Z,76.78
2019-02-17T02:09:11.894Z,76.50
2019-02-17T02:11:42.921Z,76.54
2019-02-17T02:14:12.429Z,76.72
2019-02-17T02:16:41.823Z,76.52
2019-02-17T02:19:11.324Z,76.52
2019-02-17T02:21:40.713Z,76.39
2019-02-17T02:24:10.093Z,76.62
2019-02-17T02:26:39.495Z,76.75
2019-02-17T02:29:09.001Z,77.40
2019-02-17T02:31:38.395Z,77.59
2019-02-17T02:34:07.743Z,77.53
2019-02-17T02:36:37.108Z,77.42
2019-02-17T02:39:07.805Z,77.56
2019-02-17T02:41:37.114Z,77.77
2019-02-17T02:44:06.486Z,78.22
2019-02-17T02:46:35.872Z,78.68
2019-02-17T02:49:05.220Z,78.78
2019-02-17T02:51:34.611Z,78.86
2019-02-17T02:54:04.003Z,79.99
2019-02-17T02:56:33.367Z,80.26
2019-02-17T02:59:02.737Z,80.36
2019-02-17T03:01:32.202Z,80.74
2019-02-17T03:04:01.598Z,80.59
2019-02-17T03:06:49.885Z,80.15
2019-02-17T03:09:19.276Z,79.54
2019-02-17T03:11:48.938Z,79.41
2019-02-17T03:14:18.470Z,79.01
2019-02-17T03:16:47.875Z,79.39
2019-02-17T03:19:17.276Z,79.18
2019-02-17T03:21:46.668Z,79.15
2019-02-17T03:24:16.067Z,79.61
2019-02-17T03:26:45.447Z,79.39
2019-02-17T03:29:14.892Z,79.89
2019-02-17T03:31:44.306Z,79.56
2019-02-17T03:34:13.637Z,79.35
2019-02-17T03:36:42.996Z,79.78
2019-02-17T03:39:21.625Z,79.69
2019-02-17T03:41:48.287Z,79.62
2019-02-17T03:44:17.656Z,79.39
2019-02-17T03:46:47.029Z,79.00
2019-02-17T03:49:16.479Z,78.85
2019-02-17T03:51:45.882Z,79.05
2019-02-17T03:54:15.213Z,79.60
2019-02-17T03:56:44.681Z,80.26
2019-02-17T03:59:14.070Z,80.71
2019-02-17T04:01:43.451Z,80.99
2019-02-17T04:04:12.883Z,81.31
2019-02-17T04:06:42.307Z,81.47
2019-02-17T04:09:11.662Z,81.76
2019-02-17T04:11:41.042Z,81.77
2019-02-17T04:14:10.487Z,81.55
2019-02-17T04:16:39.854Z,81.59
2019-02-17T04:19:09.283Z,81.70
2019-02-17T04:21:38.657Z,81.69
2019-02-17T04:24:08.087Z,81.62
2019-02-17T04:26:37.471Z,81.80
2019-02-17T04:29:06.848Z,81.83
2019-02-17T04:31:36.249Z,82.16
2019-02-17T04:34:05.727Z,82.19
2019-02-17T04:36:35.171Z,82.21
2019-02-17T04:39:05.775Z,82.46
2019-02-17T04:41:35.108Z,82.35
2019-02-17T04:44:07.260Z,82.65
2019-02-17T04:46:36.642Z,82.75
2019-02-17T04:49:06.171Z,82.74
2019-02-17T04:51:35.590Z,82.94
2019-02-17T04:54:04.995Z,82.79
2019-02-17T04:56:39.153Z,82.91
2019-02-17T04:59:18.007Z,83.01
2019-02-17T05:01:50.791Z,83.08
2019-02-17T05:04:31.822Z,83.03
2019-02-17T05:07:01.331Z,83.36
2019-02-17T05:09:30.673Z,83.31
2019-02-17T05:12:00.213Z,83.20
2019-02-17T05:14:29.633Z,83.31
2019-02-17T05:16:59.077Z,83.41
2019-02-17T05:19:28.493Z,83.47
2019-02-17T05:21:57.952Z,83.53
2019-02-17T05:24:27.366Z,83.53
2019-02-17T05:26:56.757Z,83.27
2019-02-17T05:29:26.158Z,83.14
2019-02-17T05:31:55.580Z,83.02
2019-02-17T05:34:24.998Z,83.39
2019-02-17T05:36:54.379Z,83.27
2019-02-17T05:39:23.958Z,83.29
2019-02-17T05:41:53.381Z,83.15
2019-02-17T05:44:22.799Z,83.19
2019-02-17T05:46:52.490Z,83.21
2019-02-17T05:49:21.889Z,83.10
2019-02-17T05:51:51.296Z,83.08
2019-02-17T05:54:20.729Z,83.47
2019-02-17T05:56:50.181Z,83.74
2019-02-17T05:59:19.534Z,83.52
2019-02-17T06:01:48.910Z,83.38
2019-02-17T06:04:18.284Z,83.39
2019-02-17T06:06:47.781Z,83.50
2019-02-17T06:09:17.175Z,83.54
2019-02-17T06:11:46.499Z,83.58
2019-02-17T06:14:15.885Z,83.66
2019-02-17T06:16:45.287Z,83.65
2019-02-17T06:19:14.642Z,83.89
2019-02-17T06:21:44.089Z,83.83
2019-02-17T06:24:13.508Z,83.55
2019-02-17T06:26:42.950Z,83.66
2019-02-17T06:29:12.339Z,83.44
2019-02-17T06:31:44.040Z,83.97
2019-02-17T06:34:13.390Z,83.27
2019-02-17T06:36:42.838Z,82.93
2019-02-17T06:39:12.171Z,83.26
2019-02-17T06:41:41.543Z,82.59
2019-02-17T06:44:10.904Z,82.49
2019-02-17T06:46:45.227Z,82.27
2019-02-17T06:49:14.582Z,81.85
2019-02-17T06:51:43.943Z,81.45
2019-02-17T06:54:13.344Z,81.21
2019-02-17T06:56:47.444Z,80.91
2019-02-17T06:59:16.827Z,81.01
2019-02-17T07:01:46.302Z,80.33
2019-02-17T07:04:15.727Z,80.41
2019-02-17T07:06:58.463Z,80.35
2019-02-17T07:09:27.803Z,80.35
2019-02-17T07:11:57.256Z,79.83
2019-02-17T07:14:26.654Z,79.84
2019-02-17T07:16:56.062Z,79.72
2019-02-17T07:19:25.453Z,79.51
2019-02-17T07:21:54.851Z,79.50
2019-02-17T07:24:24.239Z,79.32
2019-02-17T07:26:53.661Z,79.31
2019-02-17T07:29:23.037Z,79.01
2019-02-17T07:31:52.504Z,78.99
2019-02-17T07:34:21.866Z,78.83
2019-02-17T07:36:51.280Z,77.93
2019-02-17T07:39:20.703Z,77.86
2019-02-17T07:41:50.042Z,77.83
2019-02-17T07:44:19.443Z,77.45
2019-02-17T07:46:48.839Z,76.87
2019-02-17T07:49:18.237Z,76.67
2019-02-17T07:51:47.591Z,76.56
2019-02-17T07:54:17.051Z,76.57
2019-02-17T07:56:48.431Z,76.73
2019-02-17T07:59:17.486Z,77.21
2019-02-17T08:01:47.400Z,76.95
2019-02-17T08:04:16.803Z,76.87
2019-02-17T08:06:46.165Z,76.87
2019-02-17T08:09:15.548Z,77.79
2019-02-17T08:11:44.920Z,78.04
2019-02-17T08:14:14.319Z,78.54
2019-02-17T08:16:43.687Z,79.14
2019-02-17T08:19:13.075Z,78.83
2019-02-17T08:21:42.494Z,78.75
2019-02-17T08:24:11.910Z,78.48
2019-02-17T08:26:41.303Z,78.21
2019-02-17T08:29:10.706Z,78.09
2019-02-17T08:31:40.129Z,77.76
2019-02-17T08:37:41.359Z,77.71
2019-02-17T08:40:10.937Z,77.27
2019-02-17T08:42:40.307Z,76.89
2019-02-17T08:45:10.042Z,77.28
2019-02-17T08:47:39.487Z,77.16
2019-02-17T08:50:10.056Z,76.52
2019-02-17T08:52:39.513Z,76.18
2019-02-17T08:55:09.577Z,75.96
2019-02-17T08:57:39.017Z,75.66
2019-02-17T09:00:10.196Z,75.33
2019-02-17T09:02:40.849Z,74.93
2019-02-17T09:05:10.391Z,74.31
2019-02-17T09:07:39.827Z,74.22
2019-02-17T09:10:10.827Z,73.79
2019-02-17T09:12:40.202Z,72.70
2019-02-17T09:15:11.312Z,72.93
2019-02-17T09:17:40.702Z,72.23
2019-02-17T09:20:10.741Z,71.51
2019-02-17T09:22:40.187Z,70.94
2019-02-17T09:25:10.584Z,71.00
2019-02-17T09:27:39.996Z,70.52
2019-02-17T09:30:12.879Z,70.11
2019-02-17T09:32:42.307Z,70.94
2019-02-17T09:35:11.713Z,71.06
2019-02-17T09:37:41.166Z,71.15
2019-02-17T09:40:11.298Z,70.74
2019-02-17T09:42:40.691Z,70.98
2019-02-17T09:45:11.867Z,71.07
2019-02-17T09:47:41.280Z,69.57
2019-02-17T09:50:12.330Z,67.98
2019-02-17T09:52:41.664Z,67.52
2019-02-17T09:55:11.217Z,66.00
2019-02-17T09:57:40.612Z,64.22
2019-02-17T10:00:11.603Z,62.92
2019-02-17T10:02:40.968Z,62.26
2019-02-17T10:05:10.367Z,60.67
2019-02-17T10:07:39.758Z,59.33
2019-02-17T10:10:11.483Z,59.40
2019-02-17T10:12:40.974Z,58.91
2019-02-17T10:15:11.862Z,57.86
2019-02-17T10:17:41.268Z,56.36
2019-02-17T10:20:12.493Z,56.60
2019-02-17T10:22:41.969Z,57.40
2019-02-17T10:25:11.625Z,55.61
2019-02-17T10:27:41.058Z,55.60
2019-02-17T10:30:12.405Z,53.36
2019-02-17T10:32:41.883Z,53.43
2019-02-17T10:35:11.223Z,52.93
2019-02-17T10:37:40.655Z,52.00
2019-02-17T10:40:11.820Z,52.27
2019-02-17T10:42:41.277Z,52.02
2019-02-17T10:45:11.298Z,51.05
2019-02-17T10:47:40.747Z,50.99
2019-02-17T10:50:10.842Z,49.84
2019-02-17T10:52:40.241Z,50.20
2019-02-17T10:55:09.938Z,50.89
2019-02-17T10:57:39.336Z,49.00
2019-02-17T11:00:12.399Z,47.11
2019-02-17T11:02:47.224Z,46.04
2019-02-17T11:05:13.072Z,46.51
2019-02-17T11:07:42.477Z,45.97
2019-02-17T11:10:11.897Z,45.43
2019-02-17T11:12:41.320Z,44.73
2019-02-17T11:15:12.738Z,44.82
2019-02-17T11:17:42.180Z,45.01
2019-02-17T11:20:11.798Z,44.58
2019-02-17T11:22:41.157Z,43.88
2019-02-17T11:25:10.556Z,43.27
2019-02-17T11:27:39.927Z,42.86
2019-02-17T11:30:11.567Z,41.74
2019-02-17T11:32:40.956Z,41.06
2019-02-17T11:35:10.505Z,40.52
2019-02-17T11:37:40.020Z,38.93
2019-02-17T11:40:11.021Z,39.40
2019-02-17T11:42:40.437Z,40.29
2019-02-17T11:45:12.630Z,40.86
2019-02-17T11:47:42.025Z,39.98
2019-02-17T11:50:11.524Z,40.35
2019-02-17T11:52:40.927Z,40.79
2019-02-17T11:55:11.843Z,39.12
2019-02-17T11:57:41.294Z,37.85
2019-02-17T12:00:21.077Z,37.80
2019-02-17T12:02:50.489Z,36.92
2019-02-17T12:05:19.916Z,36.51
2019-02-17T12:07:49.422Z,37.28
2019-02-17T12:10:18.976Z,36.29
2019-02-17T12:12:48.405Z,35.72
2019-02-17T12:15:17.804Z,37.02
2019-02-17T12:17:47.365Z,36.72
2019-02-17T12:20:43.266Z,36.69
2019-02-17T12:23:16.711Z,36.21
2019-02-17T12:25:56.251Z,34.95
2019-02-17T12:28:50.599Z,35.64
2019-02-17T12:31:26.807Z,35.13
2019-02-17T12:33:56.240Z,34.59
2019-02-17T12:36:25.656Z,33.82
2019-02-17T12:38:57.208Z,33.10
2019-02-17T12:41:26.611Z,31.95
2019-02-17T12:43:56.035Z,32.98
2019-02-17T12:46:25.417Z,33.45
2019-02-17T12:48:54.794Z,33.28
2019-02-17T12:51:26.294Z,32.51
2019-02-17T12:53:55.764Z,31.37
2019-02-17T12:56:25.134Z,31.85
2019-02-17T12:58:54.516Z,32.74
2019-02-17T13:01:23.907Z,32.48
2019-02-17T13:03:53.328Z,31.92
2019-02-17T13:06:23.473Z,31.78
2019-02-17T13:08:52.961Z,32.54
2019-02-17T13:11:22.368Z,31.08
2019-02-17T13:13:51.737Z,31.82
2019-02-17T13:16:21.125Z,30.75
2019-02-17T13:18:50.530Z,30.87
2019-02-17T13:21:19.939Z,28.92
2019-02-17T13:23:49.329Z,28.81
2019-02-17T13:26:18.741Z,28.58
2019-02-17T13:28:48.143Z,27.89
2019-02-17T13:31:17.521Z,27.21
2019-02-17T13:33:46.948Z,27.66
2019-02-17T13:36:16.328Z,27.48
2019-02-17T13:38:45.674Z,27.56
2019-02-17T13:41:15.059Z,27.88
2019-02-17T13:43:44.445Z,26.95
2019-02-17T13:46:13.829Z,26.42
2019-02-17T13:48:43.239Z,26.16
2019-02-17T13:51:12.628Z,26.08
2019-02-17T13:53:42.036Z,25.83
2019-02-17T13:56:11.445Z,25.78
2019-02-17T13:58:40.827Z,26.17
2019-02-17T14:01:10.264Z,25.41
2019-02-17T14:03:48.234Z,24.99
2019-02-17T14:06:10.821Z,25.05
2019-02-17T14:08:40.182Z,25.82
2019-02-17T14:11:09.538Z,26.38
2019-02-17T14:13:38.898Z,26.87
2019-02-17T14:16:08.291Z,26.90
2019-02-17T14:18:37.680Z,27.31
2019-02-17T14:21:07.101Z,27.09
2019-02-17T14:23:36.528Z,26.76
2019-02-17T14:26:05.898Z,27.33
2019-02-17T14:28:35.298Z,27.84
2019-02-17T14:31:04.720Z,27.20
2019-02-17T14:33:34.165Z,26.98
2019-02-17T14:36:03.515Z,27.50
2019-02-17T14:38:33.000Z,27.63
2019-02-17T14:41:02.348Z,27.65
2019-02-17T14:43:31.715Z,27.83
2019-02-17T14:46:01.103Z,28.59
2019-02-17T14:48:30.472Z,28.62
2019-02-17T14:50:59.911Z,28.78
2019-02-17T14:53:29.287Z,28.30
2019-02-17T14:55:58.626Z,28.47
2019-02-17T14:58:28.040Z,29.17
2019-02-17T15:00:57.445Z,29.86
2019-02-17T15:03:26.826Z,30.12
2019-02-17T15:05:56.197Z,30.17
2019-02-17T15:08:25.596Z,29.40
2019-02-17T15:10:54.971Z,29.97
2019-02-17T15:13:24.921Z,30.70
2019-02-17T15:15:54.420Z,31.26
2019-02-17T15:18:23.785Z,31.89
2019-02-17T15:20:53.178Z,31.61
2019-02-17T15:23:22.575Z,32.33
2019-02-17T15:25:51.982Z,32.75
2019-02-17T15:28:21.335Z,33.74
2019-02-17T15:30:50.712Z,34.44
2019-02-17T15:33:20.194Z,34.93
2019-02-17T15:35:49.634Z,36.51
2019-02-17T15:38:19.065Z,37.29
2019-02-17T15:40:48.513Z,38.61
2019-02-17T15:43:17.905Z,39.09
2019-02-17T15:45:47.247Z,39.69
2019-02-17T15:48:16.658Z,40.45
2019-02-17T15:50:46.061Z,40.63
2019-02-17T15:53:15.468Z,40.65
2019-02-17T15:55:44.864Z,41.17
2019-02-17T15:58:14.271Z,41.49
2019-02-17T16:00:43.929Z,41.84
2019-02-17T16:03:13.333Z,42.15
2019-02-17T16:05:43.728Z,42.38
2019-02-17T16:08:13.342Z,42.66
2019-02-17T16:10:42.782Z,43.07
2019-02-17T16:13:12.240Z,44.07
2019-02-17T16:15:41.626Z,44.52
2019-02-17T16:18:11.069Z,44.84
2019-02-17T16:20:40.506Z,45.34
2019-02-17T16:23:09.897Z,45.53
2019-02-17T16:25:39.256Z,45.91
2019-02-17T16:28:08.681Z,46.89
2019-02-17T16:30:38.076Z,47.20
2019-02-17T16:33:07.466Z,47.97
2019-02-17T16:35:36.941Z,48.49
2019-02-17T16:38:06.322Z,48.95
2019-02-17T16:40:35.716Z,49.33
2019-02-17T16:43:05.654Z,49.86
2019-02-17T16:45:35.081Z,49.73
2019-02-17T16:48:04.535Z,49.84
2019-02-17T16:50:33.968Z,49.86
2019-02-17T16:53:03.522Z,49.94
2019-02-17T16:55:32.994Z,50.06
2019-02-17T16:58:02.535Z,50.32
2019-02-17T17:00:31.970Z,50.51
2019-02-17T17:03:01.556Z,50.72
2019-02-17T17:05:30.979Z,51.27
2019-02-17T17:08:00.372Z,51.78
2019-02-17T17:10:29.809Z,51.95
2019-02-17T17:12:59.179Z,52.21
2019-02-17T17:15:28.545Z,52.51
2019-02-17T17:17:57.942Z,52.86
2019-02-17T17:20:27.291Z,53.00
2019-02-17T17:22:56.679Z,53.07
2019-02-17T17:25:26.200Z,53.21
2019-02-17T17:27:55.666Z,53.34
2019-02-17T17:30:25.156Z,53.55
2019-02-17T17:32:54.674Z,53.48
2019-02-17T17:35:24.094Z,53.69
2019-02-17T17:37:53.528Z,53.70
2019-02-17T17:40:22.967Z,53.94
2019-02-17T17:42:52.364Z,53.93
2019-02-17T17:45:21.798Z,54.39
2019-02-17T17:47:51.246Z,54.46
2019-02-17T17:50:22.300Z,54.82
2019-02-17T17:52:51.906Z,55.30
2019-02-17T17:55:21.383Z,55.47
2019-02-17T17:57:50.750Z,55.93
2019-02-17T18:00:20.954Z,56.18
2019-02-17T18:02:50.411Z,56.46
2019-02-17T18:05:19.787Z,56.62
2019-02-17T18:07:49.342Z,56.87
2019-02-17T18:10:19.500Z,57.09
2019-02-17T18:12:51.917Z,57.50
2019-02-17T18:15:21.443Z,57.76
2019-02-17T18:17:54.234Z,58.16
2019-02-17T18:20:22.332Z,58.49
2019-02-17T18:22:51.802Z,58.76
2019-02-17T18:25:21.180Z,59.01
2019-02-17T18:27:50.618Z,58.89
2019-02-17T18:30:20.109Z,59.01
2019-02-17T18:32:49.528Z,58.76
2019-02-17T18:35:20.492Z,58.81
2019-02-17T18:37:50.187Z,58.74
2019-02-17T18:40:19.686Z,59.02
2019-02-17T18:42:49.118Z,59.25
2019-02-17T18:45:18.565Z,59.32
2019-02-17T18:47:48.044Z,59.51
2019-02-17T18:50:17.560Z,59.66
2019-02-17T18:52:46.918Z,59.92
2019-02-17T18:55:16.320Z,60.04
2019-02-17T18:57:50.261Z,59.97
2019-02-17T19:00:17.429Z,59.67
2019-02-17T19:02:47.160Z,59.81
2019-02-17T19:05:16.623Z,59.76
2019-02-17T19:07:46.049Z,59.33
2019-02-17T19:10:15.652Z,59.90
2019-02-17T19:12:45.070Z,59.80
2019-02-17T19:15:14.532Z,59.78
2019-02-17T19:17:43.932Z,59.37
2019-02-17T19:20:15.601Z,59.34
2019-02-17T19:22:44.821Z,59.42
2019-02-17T19:25:14.219Z,59.48
2019-02-17T19:27:43.670Z,59.45
2019-02-17T19:30:14.331Z,59.69
2019-02-17T19:32:43.746Z,59.35
2019-02-17T19:35:13.638Z,59.46
2019-02-17T19:37:43.953Z,59.75
2019-02-17T19:40:13.818Z,59.95
2019-02-17T19:42:43.242Z,60.13
2019-02-17T19:45:12.985Z,59.94
2019-02-17T19:47:42.478Z,59.67
2019-02-17T19:50:12.343Z,59.60
2019-02-17T19:52:41.749Z,59.69
2019-02-17T19:55:11.699Z,59.64
2019-02-17T19:57:41.267Z,59.78
2019-02-17T20:00:12.366Z,59.85
2019-02-17T20:02:54.892Z,59.74
2019-02-17T20:05:26.818Z,60.02
2019-02-17T20:07:56.221Z,59.95
2019-02-17T20:10:25.619Z,59.83
2019-02-17T20:12:54.985Z,59.69
2019-02-17T20:15:26.352Z,59.77
2019-02-17T20:17:55.745Z,59.68
2019-02-17T20:20:25.144Z,59.63
2019-02-17T20:22:54.570Z,59.65
2019-02-17T20:25:23.982Z,59.67
2019-02-17T20:27:53.375Z,59.63
2019-02-17T20:30:22.754Z,59.65
2019-02-17T20:32:52.488Z,59.66
2019-02-17T20:35:21.884Z,60.00
2019-02-17T20:37:51.536Z,59.91
2019-02-17T20:40:20.919Z,60.20
2019-02-17T20:42:50.302Z,60.08
2019-02-17T20:45:19.720Z,60.00
2019-02-17T20:47:49.066Z,60.01
2019-02-17T20:50:18.496Z,59.96
2019-02-17T20:52:47.987Z,59.94
2019-02-17T20:55:17.376Z,60.02
2019-02-17T20:57:46.805Z,60.28
2019-02-17T21:00:16.723Z,60.00
2019-02-17T21:02:46.120Z,59.94
2019-02-17T21:05:15.499Z,60.05
2019-02-17T21:07:44.923Z,60.29
2019-02-17T21:10:14.480Z,60.32
2019-02-17T21:12:43.840Z,60.26
2019-02-17T21:15:14.365Z,60.25
2019-02-17T21:17:43.869Z,60.46
2019-02-17T21:20:13.774Z,60.26
2019-02-17T21:22:43.445Z,60.01
2019-02-17T21:25:12.909Z,60.28
2019-02-17T21:27:42.299Z,60.44
2019-02-17T21:30:12.025Z,60.32
2019-02-17T21:32:41.470Z,60.30
2019-02-17T21:35:14.521Z,60.50
2019-02-17T21:37:43.937Z,60.60
2019-02-17T21:40:13.458Z,60.33
2019-02-17T21:42:42.924Z,60.34
2019-02-17T21:45:12.623Z,60.50
2019-02-17T21:47:41.965Z,60.75
2019-02-17T21:50:11.571Z,61.02
2019-02-17T21:52:41.975Z,61.38
2019-02-17T21:55:11.858Z,61.46
2019-02-17T21:57:41.360Z,61.65
2019-02-17T22:00:14.580Z,61.77
2019-02-17T22:02:43.953Z,61.61
2019-02-17T22:05:13.440Z,61.81
2019-02-17T22:07:42.901Z,61.68
2019-02-17T22:10:12.799Z,61.93
2019-02-17T22:12:42.156Z,61.85
2019-02-17T22:15:13.525Z,61.77
2019-02-17T22:17:42.880Z,62.19
2019-02-17T22:20:12.530Z,62.38
2019-02-17T22:22:42.147Z,62.30
2019-02-17T22:25:11.662Z,62.38
2019-02-17T22:27:41.017Z,62.28
2019-02-17T22:30:10.722Z,62.12
2019-02-17T22:32:40.219Z,62.34
2019-02-17T22:35:10.350Z,62.66
2019-02-17T22:37:39.746Z,62.77
2019-02-17T22:40:09.712Z,62.96
2019-02-17T22:42:39.226Z,63.46
2019-02-17T22:45:09.139Z,63.86
2019-02-17T22:47:38.576Z,64.04
2019-02-17T22:50:09.032Z,64.41
2019-02-17T22:52:38.408Z,64.55
2019-02-17T22:55:09.231Z,65.35
2019-02-17T22:57:38.592Z,65.76
2019-02-17T23:00:14.963Z,65.95
2019-02-17T23:02:44.414Z,66.31
2019-02-17T23:05:13.894Z,66.83
2019-02-17T23:07:43.267Z,66.79
2019-02-17T23:10:12.694Z,66.87
2019-02-17T23:12:42.052Z,67.32
2019-02-17T23:15:11.444Z,67.73
2019-02-17T23:17:40.893Z,67.91
2019-02-17T23:20:10.264Z,68.34
2019-02-17T23:22:39.717Z,68.90
2019-02-17T23:25:09.502Z,69.42
2019-02-17T23:27:38.842Z,69.56
2019-02-17T23:30:08.249Z,69.72
2019-02-17T23:32:37.685Z,70.02
2019-02-17T23:35:07.265Z,69.90
2019-02-17T23:37:36.620Z,69.69
2019-02-17T23:40:08.659Z,69.78
2019-02-17T23:42:38.016Z,70.13
2019-02-17T23:45:08.218Z,69.82
2019-02-17T23:47:37.604Z,70.10
2019-02-17T23:50:07.137Z,70.20
2019-02-17T23:52:36.545Z,70.46
2019-02-17T23:55:06.169Z,70.62
2019-02-17T23:57:35.567Z,70.67
